»·PEaware :: AAL225 KPSP-KSLC

AAL225 :: KPSP-KSLC

FLIGHT INFORMATION

Flight Status: Arrived
Operator:
American Airlines
More flights by this operator :: More flights under this callsign
Pilot: Michael R. (16974)
Aircraft: BOEING 737-800
(B738)
More flights by this aircraft type
Origin: KPSP Palm Springs Intl
United States
Destination: KSLC Salt Lake City Intl
United States
More flights between these airports :: More routes between these airports
Route: + / PSP045020 MLF DELTA5
File this flight plan on PilotEdge
Remarks:
Altitude:
(Current/Filed)
35,000ft
Speed:
(Current/Filed)
452kts
Departed: 30-Apr-18 08:16 PM
Arrived: 30-Apr-18 09:29 PM
Distance/Time
Traveled:
470nm/1:13
Distance/Time
To Go:
Arrived

Flight Plot

Page will automatically refresh every two minutes.

Flight plan parsing failed; only flown route is shown


Map Options




Map Legend


Flown Route
Filed Route
Departure Airport
Arrival Airport
Navaid (VOR, NDB)
Fix

Horizontal Profiles

Position Reports

Time Latitude Longitude Heading Altitude Ground
Speed
30-Apr-18 19:51 33.822531 -116.506216 324 485ft 0kts
30-Apr-18 19:52 33.822531 -116.506216 324 485ft 0kts
30-Apr-18 19:53 33.822531 -116.506216 324 485ft 0kts
30-Apr-18 19:54 33.822531 -116.506216 324 485ft 0kts
30-Apr-18 19:55 33.822531 -116.506216 324 485ft 0kts
30-Apr-18 19:56 33.822531 -116.506216 324 485ft 0kts
30-Apr-18 19:57 33.822531 -116.506216 324 485ft 0kts
30-Apr-18 19:58 33.822531 -116.506216 324 485ft 0kts
30-Apr-18 19:59 33.822531 -116.506216 324 485ft 0kts
30-Apr-18 20:00 33.822531 -116.506216 324 485ft 0kts
30-Apr-18 20:01 33.822531 -116.506216 324 485ft 0kts
30-Apr-18 20:02 33.822531 -116.506216 324 485ft 0kts
30-Apr-18 20:03 33.822531 -116.506216 324 485ft 0kts
30-Apr-18 20:04 33.822415 -116.506118 324 485ft 2kts
30-Apr-18 20:05 33.821899 -116.505971 38 485ft 0kts
30-Apr-18 20:06 33.821712 -116.506167 40 485ft 0kts
30-Apr-18 20:07 33.821635 -116.506247 40 485ft 0kts
30-Apr-18 20:08 33.821635 -116.506247 40 485ft 0kts
30-Apr-18 20:09 33.822854 -116.504591 55 485ft 5kts
30-Apr-18 20:10 33.822861 -116.504579 55 485ft 0kts
30-Apr-18 20:11 33.821602 -116.502482 143 485ft 18kts
30-Apr-18 20:12 33.818446 -116.499058 80 485ft 0kts
30-Apr-18 20:13 33.818446 -116.499058 80 485ft 0kts
30-Apr-18 20:14 33.819448 -116.498593 323 485ft 14kts
30-Apr-18 20:15 33.831401 -116.509079 321 530ft 161kts
30-Apr-18 20:16 33.873446 -116.546243 321 3113ft 226kts
30-Apr-18 20:17 33.931303 -116.561077 44 6231ft 278kts
30-Apr-18 20:18 33.949182 -116.469672 72 9642ft 301kts
30-Apr-18 20:19 33.973758 -116.365314 72 12254ft 348kts
30-Apr-18 20:20 34.000558 -116.251272 73 15113ft 374kts
30-Apr-18 20:21 34.029628 -116.127059 74 17762ft 398kts
30-Apr-18 20:22 34.078216 -116.008755 26 20097ft 403kts
30-Apr-18 20:23 34.173325 -115.944768 20 22335ft 414kts
30-Apr-18 20:24 34.275707 -115.877283 20 24419ft 428kts
30-Apr-18 20:25 34.381593 -115.807298 19 26321ft 441kts
30-Apr-18 20:26 34.490142 -115.735355 20 27960ft 455kts
30-Apr-18 20:27 34.602214 -115.660824 19 29580ft 465kts
30-Apr-18 20:28 34.714791 -115.585549 19 31537ft 460kts
30-Apr-18 20:29 34.826333 -115.510779 20 33230ft 458kts
30-Apr-18 20:30 34.936815 -115.436432 20 34758ft 454kts
30-Apr-18 20:31 35.051462 -115.359393 20 34774ft 489kts
30-Apr-18 20:32 35.157742 -115.287697 21 34727ft 500kts
30-Apr-18 20:33 35.273136 -115.209521 22 34731ft 505kts
30-Apr-18 20:34 35.395544 -115.126308 22 34732ft 505kts
30-Apr-18 20:35 35.517781 -115.042855 22 34805ft 505kts
30-Apr-18 20:36 35.640082 -114.959050 22 34781ft 504kts
30-Apr-18 20:37 35.762029 -114.875187 22 34781ft 505kts
30-Apr-18 20:38 35.883754 -114.791205 23 34787ft 502kts
30-Apr-18 20:39 36.005549 -114.706822 23 34787ft 505kts
30-Apr-18 20:40 36.114195 -114.631280 23 34785ft 505kts
30-Apr-18 20:41 36.234780 -114.547135 23 34785ft 505kts
30-Apr-18 20:42 36.345998 -114.469263 24 34771ft 503kts
30-Apr-18 20:43 36.467719 -114.383720 24 34771ft 503kts
30-Apr-18 20:44 36.584006 -114.301771 24 34758ft 503kts
30-Apr-18 20:45 36.705234 -114.216112 24 34829ft 507kts
30-Apr-18 20:46 36.827211 -114.129615 25 34827ft 504kts
30-Apr-18 20:47 36.948580 -114.043179 25 34828ft 504kts
30-Apr-18 20:48 37.070039 -113.956353 25 34830ft 503kts
30-Apr-18 20:49 37.182553 -113.875598 25 34824ft 504kts
30-Apr-18 20:50 37.303559 -113.788463 25 34826ft 499kts
30-Apr-18 20:51 37.423795 -113.701528 25 34829ft 502kts
30-Apr-18 20:52 37.544514 -113.613892 25 34832ft 502kts
30-Apr-18 20:53 37.664833 -113.526217 25 34895ft 501kts
30-Apr-18 20:54 37.780897 -113.441336 26 34899ft 499kts
30-Apr-18 20:55 37.900181 -113.353774 26 34898ft 496kts
30-Apr-18 20:56 38.003655 -113.277652 27 34890ft 496kts
30-Apr-18 20:57 38.114672 -113.195714 27 34896ft 499kts
30-Apr-18 20:58 38.232509 -113.108392 27 34896ft 499kts
30-Apr-18 20:59 38.351380 -113.019936 27 34899ft 495kts
30-Apr-18 21:00 38.476142 -112.949693 19 34912ft 491kts
30-Apr-18 21:01 38.602120 -112.882952 19 34208ft 489kts
30-Apr-18 21:02 38.726119 -112.816754 20 32114ft 484kts
30-Apr-18 21:03 38.847494 -112.751569 20 29155ft 459kts
30-Apr-18 21:04 38.966829 -112.687238 21 25941ft 478kts
30-Apr-18 21:05 39.088934 -112.621117 21 22695ft 478kts
30-Apr-18 21:06 39.200466 -112.560450 21 21229ft 479kts
30-Apr-18 21:07 39.313643 -112.498844 17 20521ft 405kts
30-Apr-18 21:08 39.419524 -112.464160 10 19972ft 391kts
30-Apr-18 21:09 39.524355 -112.430206 11 19435ft 387kts
30-Apr-18 21:10 39.628459 -112.395923 11 18901ft 384kts
30-Apr-18 21:11 39.731252 -112.361799 11 18372ft 381kts
30-Apr-18 21:12 39.827064 -112.329819 11 18037ft 372kts
30-Apr-18 21:13 39.926664 -112.296495 11 17718ft 370kts
30-Apr-18 21:14 40.025881 -112.263158 11 17463ft 368kts
30-Apr-18 21:15 40.105764 -112.208887 43 16959ft 359kts
30-Apr-18 21:16 40.171741 -112.117318 45 15825ft 345kts
30-Apr-18 21:17 40.234527 -112.022376 50 13740ft 346kts
30-Apr-18 21:18 40.301116 -111.951664 5 11405ft 290kts
30-Apr-18 21:19 40.370796 -111.957285 356 10576ft 227kts
30-Apr-18 21:20 40.435569 -111.958764 356 8959ft 232kts
30-Apr-18 21:21 40.496472 -111.968199 354 7926ft 190kts
30-Apr-18 21:22 40.545964 -111.964119 7 7394ft 177kts
30-Apr-18 21:23 40.597653 -111.954281 1 8214ft 188kts
30-Apr-18 21:24 40.649392 -111.954055 351 7919ft 183kts
30-Apr-18 21:26 40.697790 -111.964218 352 6271ft 165kts
30-Apr-18 21:27 40.740815 -111.969480 354 5135ft 153kts
30-Apr-18 21:28 40.783150 -111.974151 356 4235ft 148kts
30-Apr-18 21:29 40.801635 -111.977702 264 4235ft 16kts
30-Apr-18 21:30 40.799542 -111.978187 174 4235ft 34kts
30-Apr-18 21:31 40.789746 -111.977621 197 4235ft 25kts
30-Apr-18 21:32 40.789110 -111.978062 227 4235ft 0kts
30-Apr-18 21:33 40.789110 -111.978062 227 4235ft 0kts
30-Apr-18 21:34 40.789110 -111.978062 227 4235ft 0kts
30-Apr-18 21:35 40.789110 -111.978062 227 4235ft 0kts
30-Apr-18 21:36 40.789110 -111.978062 227 4235ft 0kts
30-Apr-18 21:37 40.789110 -111.978062 227 4235ft 0kts
30-Apr-18 21:38 40.789110 -111.978062 227 4235ft 0kts
30-Apr-18 21:39 40.789110 -111.978062 227 4235ft 0kts
30-Apr-18 21:40 40.789110 -111.978062 227 4235ft 0kts
30-Apr-18 21:41 40.789110 -111.978062 227 4235ft 0kts
30-Apr-18 21:42 40.789110 -111.978062 227 4235ft 0kts

Navigation Log

Ident Type
Flight plan parsing failed, navigation log unavailable